createdAt,value
2023-04-09T00:02:19.908Z,21.80
2023-04-09T00:04:43.808Z,21.67
2023-04-09T00:07:09.143Z,22.30
2023-04-09T00:09:33.172Z,23.67
2023-04-09T00:11:58.303Z,22.77
2023-04-09T00:14:22.071Z,24.67
2023-04-09T00:16:45.867Z,22.40
2023-04-09T00:19:09.669Z,22.97
2023-04-09T00:21:33.429Z,22.30
2023-04-09T00:23:58.554Z,23.43
2023-04-09T00:26:22.640Z,26.03
2023-04-09T00:28:46.339Z,25.07
2023-04-09T00:31:10.906Z,25.13
2023-04-09T00:33:34.550Z,24.27
2023-04-09T00:35:58.272Z,24.07
2023-04-09T00:38:22.000Z,24.53
2023-04-09T00:40:51.319Z,23.30
2023-04-09T00:43:14.915Z,23.63
2023-04-09T00:45:39.272Z,23.83
2023-04-09T00:48:03.148Z,24.20
2023-04-09T00:50:27.066Z,24.17
2023-04-09T00:52:50.787Z,23.30
2023-04-09T00:55:15.063Z,23.47
2023-04-09T00:57:40.396Z,23.10
2023-04-09T01:00:04.974Z,23.57
2023-04-09T01:02:29.046Z,22.83
2023-04-09T01:04:53.095Z,23.03
2023-04-09T01:07:28.804Z,24.77
2023-04-09T01:10:00.555Z,24.90
2023-04-09T01:12:34.129Z,24.03
2023-04-09T01:15:07.548Z,23.03
2023-04-09T01:17:37.309Z,24.80
2023-04-09T01:20:06.790Z,26.10
2023-04-09T01:22:49.569Z,25.47
2023-04-09T01:25:31.086Z,29.07
2023-04-09T01:28:27.320Z,29.80
2023-04-09T01:30:55.257Z,29.60
2023-04-09T01:33:21.811Z,30.47
2023-04-09T01:35:48.493Z,30.87
2023-04-09T01:38:14.411Z,29.43
2023-04-09T01:40:38.677Z,29.13
2023-04-09T01:43:04.209Z,28.43
2023-04-09T01:45:29.510Z,28.43
2023-04-09T01:47:54.399Z,29.47
2023-04-09T01:50:18.409Z,29.50
2023-04-09T01:52:42.418Z,27.20
2023-04-09T01:55:07.516Z,29.73
2023-04-09T01:57:32.170Z,28.40
2023-04-09T01:59:56.671Z,29.23
2023-04-09T02:02:35.565Z,28.83
2023-04-09T02:05:03.479Z,29.43
2023-04-09T02:07:37.225Z,34.97
2023-04-09T02:10:02.671Z,46.80
2023-04-09T02:12:27.286Z,54.83
2023-04-09T02:14:53.673Z,60.47
2023-04-09T02:17:17.372Z,67.80
2023-04-09T02:19:44.723Z,68.43
2023-04-09T02:22:08.508Z,59.43
2023-04-09T02:24:32.258Z,59.87
2023-04-09T02:26:55.943Z,56.60
2023-04-09T02:29:19.666Z,59.20
2023-04-09T02:31:43.428Z,56.37
2023-04-09T02:34:07.188Z,60.33
2023-04-09T02:36:32.344Z,53.27
2023-04-09T02:38:56.061Z,41.67
2023-04-09T02:41:19.762Z,32.63
2023-04-09T02:43:43.505Z,42.97
2023-04-09T02:46:08.466Z,32.80
2023-04-09T02:48:33.111Z,39.53
2023-04-09T02:50:56.858Z,34.97
2023-04-09T02:53:22.849Z,36.33
2023-04-09T02:55:46.499Z,33.30
2023-04-09T02:58:10.239Z,30.43
2023-04-09T03:00:34.046Z,43.07
2023-04-09T03:02:58.248Z,34.27
2023-04-09T03:05:22.211Z,29.63
2023-04-09T03:07:47.400Z,29.73
2023-04-09T03:10:12.959Z,31.03
2023-04-09T03:12:37.228Z,32.73
2023-04-09T03:15:01.330Z,32.40
2023-04-09T03:17:27.165Z,29.57
2023-04-09T03:19:50.932Z,29.30
2023-04-09T03:22:15.107Z,30.57
2023-04-09T03:24:38.755Z,30.93
2023-04-09T03:27:04.845Z,30.43
2023-04-09T03:29:29.644Z,44.43
2023-04-09T03:31:53.933Z,29.00
2023-04-09T03:34:17.626Z,27.90
2023-04-09T03:36:44.284Z,30.13
2023-04-09T03:39:14.884Z,33.03
2023-04-09T03:41:40.752Z,31.83
2023-04-09T03:44:09.724Z,31.73
2023-04-09T03:46:43.845Z,33.60
2023-04-09T03:49:11.306Z,39.80
2023-04-09T03:51:38.922Z,31.17
2023-04-09T03:54:03.048Z,31.30
2023-04-09T03:56:27.362Z,34.10
2023-04-09T03:58:51.650Z,31.00
2023-04-09T04:01:21.761Z,29.37
2023-04-09T04:03:51.379Z,35.53
2023-04-09T04:06:23.140Z,30.57
2023-04-09T04:09:17.834Z,30.07
2023-04-09T04:11:50.199Z,33.87
2023-04-09T04:14:15.709Z,33.80
2023-04-09T04:16:44.096Z,27.10
2023-04-09T04:19:10.423Z,31.00
2023-04-09T04:21:41.161Z,29.10
2023-04-09T04:24:06.048Z,29.70
2023-04-09T04:26:29.721Z,30.17
2023-04-09T04:28:54.620Z,36.50
2023-04-09T04:31:41.320Z,32.77
2023-04-09T04:34:06.976Z,31.60
2023-04-09T04:36:30.801Z,31.87
2023-04-09T04:38:54.743Z,32.07
2023-04-09T04:41:34.173Z,30.90
2023-04-09T04:44:06.581Z,30.20
2023-04-09T04:46:30.402Z,29.90
2023-04-09T04:48:54.386Z,30.53
2023-04-09T04:51:20.872Z,31.57
2023-04-09T04:53:56.783Z,30.60
2023-04-09T04:56:20.642Z,32.70
2023-04-09T04:58:54.552Z,32.67
2023-04-09T05:01:19.243Z,32.07
2023-04-09T05:03:43.802Z,33.50
2023-04-09T05:06:23.034Z,32.17
2023-04-09T05:08:46.886Z,33.40
2023-04-09T05:11:15.237Z,29.37
2023-04-09T05:13:40.182Z,30.07
2023-04-09T05:16:07.539Z,28.67
2023-04-09T05:18:33.084Z,30.90
2023-04-09T05:20:56.737Z,29.92
2023-04-09T05:23:23.326Z,29.63
2023-04-09T05:25:47.071Z,29.03
2023-04-09T05:28:19.210Z,28.87
2023-04-09T05:30:48.566Z,29.50
2023-04-09T05:33:14.444Z,29.23
2023-04-09T05:35:41.056Z,29.47
2023-04-09T05:38:04.888Z,29.37
2023-04-09T05:40:30.172Z,29.90
2023-04-09T05:42:53.888Z,30.33
2023-04-09T05:45:30.193Z,29.90
2023-04-09T05:47:54.092Z,29.20
2023-04-09T05:50:19.735Z,29.23
2023-04-09T05:52:45.707Z,29.10
2023-04-09T05:55:11.606Z,28.63
2023-04-09T05:57:57.277Z,27.92
2023-04-09T06:00:21.829Z,27.88
2023-04-09T06:02:46.941Z,29.50
2023-04-09T06:05:11.514Z,28.93
2023-04-09T06:07:35.425Z,28.40
2023-04-09T06:09:59.970Z,28.65
2023-04-09T06:12:24.649Z,28.20
2023-04-09T06:14:50.742Z,28.53
2023-04-09T06:17:14.342Z,28.35
2023-04-09T06:19:38.470Z,28.58
2023-04-09T06:22:02.507Z,29.37
2023-04-09T06:24:26.756Z,29.30
2023-04-09T06:26:50.564Z,28.98
2023-04-09T06:29:14.221Z,29.87
2023-04-09T06:31:39.583Z,29.98
2023-04-09T06:34:03.403Z,28.33
2023-04-09T06:36:28.075Z,28.65
2023-04-09T06:38:52.343Z,30.45
2023-04-09T06:41:16.206Z,29.08
2023-04-09T06:43:39.875Z,28.38
2023-04-09T06:46:03.493Z,29.60
2023-04-09T06:48:28.611Z,29.50
2023-04-09T06:50:52.256Z,29.03
2023-04-09T06:53:17.673Z,28.65
2023-04-09T06:55:41.431Z,28.92
2023-04-09T06:58:05.126Z,29.70
2023-04-09T07:00:28.743Z,29.85
2023-04-09T07:02:53.620Z,31.35
2023-04-09T07:05:19.146Z,28.58
2023-04-09T07:07:42.835Z,28.70
2023-04-09T07:10:07.785Z,28.40
2023-04-09T07:12:33.435Z,29.85
2023-04-09T07:15:00.219Z,27.50
2023-04-09T07:17:24.105Z,28.25
2023-04-09T07:19:47.721Z,28.70
2023-04-09T07:22:12.768Z,27.17
2023-04-09T07:24:36.467Z,28.75
2023-04-09T07:27:00.193Z,28.90
2023-04-09T07:29:23.790Z,30.48
2023-04-09T07:31:47.937Z,29.30
2023-04-09T07:34:11.627Z,28.58
2023-04-09T07:36:35.260Z,29.65
2023-04-09T07:39:00.353Z,28.27
2023-04-09T07:41:24.304Z,27.58
2023-04-09T07:43:48.133Z,28.20
2023-04-09T07:46:11.981Z,28.17
2023-04-09T07:48:36.004Z,25.42
2023-04-09T07:50:59.775Z,27.02
2023-04-09T07:53:23.380Z,27.10
2023-04-09T07:55:48.502Z,27.33
2023-04-09T07:58:12.160Z,27.00
2023-04-09T08:00:36.068Z,27.35
2023-04-09T08:03:00.700Z,26.55
2023-04-09T08:05:24.796Z,26.50
2023-04-09T08:07:48.555Z,26.05
2023-04-09T08:10:15.262Z,27.73
2023-04-09T08:12:40.476Z,26.52
2023-04-09T08:15:04.811Z,25.85
2023-04-09T08:17:28.521Z,27.75
2023-04-09T08:19:53.042Z,26.80
2023-04-09T08:22:16.725Z,27.05
2023-04-09T08:24:40.465Z,25.77
2023-04-09T08:27:04.728Z,25.48
2023-04-09T08:29:32.169Z,26.02
2023-04-09T08:31:56.449Z,24.98
2023-04-09T08:34:22.271Z,27.50
2023-04-09T08:36:48.232Z,26.73
2023-04-09T08:39:12.446Z,26.00
2023-04-09T08:41:38.214Z,25.88
2023-04-09T08:44:02.125Z,25.63
2023-04-09T08:46:27.781Z,25.02
2023-04-09T08:48:53.634Z,25.42
2023-04-09T08:51:18.665Z,25.63
2023-04-09T08:53:46.474Z,25.02
2023-04-09T08:56:10.106Z,26.58
2023-04-09T08:58:33.980Z,26.30
2023-04-09T09:00:57.630Z,25.10
2023-04-09T09:03:22.948Z,25.52
2023-04-09T09:05:47.989Z,25.73
2023-04-09T09:08:13.786Z,24.73
2023-04-09T09:10:43.099Z,25.35
2023-04-09T09:13:19.834Z,24.13
2023-04-09T09:15:44.109Z,23.90
2023-04-09T09:18:08.651Z,24.15
2023-04-09T09:20:34.560Z,24.60
2023-04-09T09:22:58.806Z,24.58
2023-04-09T09:25:24.910Z,24.80
2023-04-09T09:27:49.052Z,25.80
2023-04-09T09:30:23.859Z,26.63
2023-04-09T09:32:47.685Z,27.90
2023-04-09T09:35:11.481Z,25.50
2023-04-09T09:37:36.812Z,26.17
2023-04-09T09:40:01.058Z,25.83
2023-04-09T09:42:24.949Z,26.08
2023-04-09T09:44:49.501Z,26.42
2023-04-09T09:47:14.685Z,26.27
2023-04-09T09:49:38.362Z,25.50
2023-04-09T09:52:04.026Z,25.73
2023-04-09T09:54:32.839Z,25.35
2023-04-09T09:57:01.036Z,25.38
2023-04-09T09:59:28.317Z,25.52
2023-04-09T10:01:59.608Z,26.15
2023-04-09T10:04:25.585Z,24.83
2023-04-09T10:06:52.875Z,24.42
2023-04-09T10:09:17.588Z,25.23
2023-04-09T10:11:45.697Z,24.00
2023-04-09T10:14:09.687Z,24.50
2023-04-09T10:16:34.898Z,22.70
2023-04-09T10:19:00.545Z,23.52
2023-04-09T10:21:38.439Z,24.52
2023-04-09T10:24:05.826Z,24.60
2023-04-09T10:26:30.937Z,23.95
2023-04-09T10:29:11.748Z,23.80
2023-04-09T10:32:04.773Z,24.23
2023-04-09T10:34:29.515Z,22.13
2023-04-09T10:36:57.330Z,23.90
2023-04-09T10:39:21.538Z,23.95
2023-04-09T10:41:48.877Z,24.60
2023-04-09T10:44:24.364Z,22.60
2023-04-09T10:46:48.415Z,23.40
2023-04-09T10:49:13.852Z,23.95
2023-04-09T10:51:39.117Z,23.55
2023-04-09T10:54:02.849Z,24.75
2023-04-09T10:56:26.513Z,24.30
2023-04-09T10:58:50.485Z,21.80
2023-04-09T11:01:24.313Z,23.23
2023-04-09T11:04:10.609Z,21.00
2023-04-09T11:06:37.268Z,24.48
2023-04-09T11:09:03.916Z,22.17
2023-04-09T11:11:28.162Z,21.15
2023-04-09T11:13:51.937Z,23.52
2023-04-09T11:16:22.696Z,23.02
2023-04-09T11:18:49.076Z,22.65
2023-04-09T11:21:14.344Z,21.20
2023-04-09T11:23:38.505Z,22.02
2023-04-09T11:26:03.025Z,20.98
2023-04-09T11:28:27.755Z,21.55
2023-04-09T11:30:52.883Z,22.38
2023-04-09T11:33:20.047Z,20.02
2023-04-09T11:35:44.456Z,22.23
2023-04-09T11:38:09.159Z,22.88
2023-04-09T11:40:32.949Z,22.70
2023-04-09T11:42:57.836Z,21.13
2023-04-09T11:45:23.991Z,20.95
2023-04-09T11:47:48.421Z,21.45
2023-04-09T11:50:15.483Z,21.58
2023-04-09T11:52:41.352Z,20.55
2023-04-09T11:55:05.633Z,22.80
2023-04-09T11:57:43.034Z,21.05
2023-04-09T12:00:12.211Z,20.77
2023-04-09T12:02:39.443Z,21.58
2023-04-09T12:05:05.633Z,22.20
2023-04-09T12:07:39.572Z,21.77
2023-04-09T12:10:10.214Z,20.13
2023-04-09T12:12:41.379Z,19.80
2023-04-09T12:15:19.339Z,20.63
2023-04-09T12:17:43.005Z,20.08
2023-04-09T12:20:09.894Z,21.02
2023-04-09T12:22:33.537Z,19.73
2023-04-09T12:24:58.481Z,20.30
2023-04-09T12:27:22.181Z,20.67
2023-04-09T12:29:45.712Z,21.33
2023-04-09T12:32:09.384Z,21.48
2023-04-09T12:34:32.929Z,21.45
2023-04-09T12:36:56.634Z,20.92
2023-04-09T12:39:20.923Z,21.85
2023-04-09T12:41:45.899Z,21.48
2023-04-09T12:44:09.522Z,19.65
2023-04-09T12:46:33.151Z,18.95
2023-04-09T12:48:56.775Z,19.33
2023-04-09T12:51:20.633Z,20.83
2023-04-09T12:53:44.201Z,20.55
2023-04-09T12:56:09.178Z,19.08
2023-04-09T12:58:34.592Z,21.45
2023-04-09T13:00:58.189Z,20.05
2023-04-09T13:03:21.871Z,20.60
2023-04-09T13:05:45.676Z,21.35
2023-04-09T13:08:09.189Z,20.42
2023-04-09T13:10:33.307Z,20.27
2023-04-09T13:12:56.905Z,21.90
2023-04-09T13:15:22.122Z,21.40
2023-04-09T13:17:45.935Z,21.85
2023-04-09T13:20:10.970Z,21.27
2023-04-09T13:22:34.498Z,21.90
2023-04-09T13:24:58.090Z,21.48
2023-04-09T13:27:22.152Z,20.95
2023-04-09T13:29:45.751Z,20.85
2023-04-09T13:32:11.375Z,21.63
2023-04-09T13:34:36.015Z,21.08
2023-04-09T13:36:59.533Z,20.75
2023-04-09T13:39:23.148Z,21.30
2023-04-09T13:41:46.846Z,20.65
2023-04-09T13:44:10.471Z,19.95
2023-04-09T13:46:34.451Z,19.67
2023-04-09T13:48:59.533Z,20.45
2023-04-09T13:51:23.283Z,19.95
2023-04-09T13:53:48.238Z,19.80
2023-04-09T13:56:11.936Z,34.00
2023-04-09T13:58:35.498Z,20.67
2023-04-09T14:00:59.348Z,19.15
2023-04-09T14:03:23.936Z,19.63
2023-04-09T14:05:49.215Z,20.35
2023-04-09T14:08:13.079Z,19.00
2023-04-09T14:10:37.723Z,20.13
2023-04-09T14:13:02.169Z,18.55
2023-04-09T14:15:25.994Z,19.55
2023-04-09T14:17:49.660Z,19.45
2023-04-09T14:20:13.448Z,18.88
2023-04-09T14:22:38.481Z,19.35
2023-04-09T14:25:02.094Z,19.00
2023-04-09T14:27:25.955Z,19.48
2023-04-09T14:29:49.555Z,20.58
2023-04-09T14:32:13.199Z,19.92
2023-04-09T14:34:36.820Z,19.98
2023-04-09T14:37:00.518Z,19.25
2023-04-09T14:39:25.583Z,18.88
2023-04-09T14:41:49.285Z,20.13
2023-04-09T14:44:12.925Z,19.60
2023-04-09T14:46:37.821Z,19.23
2023-04-09T14:49:01.427Z,18.73
2023-04-09T14:51:25.036Z,20.17
2023-04-09T14:53:48.663Z,19.27
2023-04-09T14:56:13.601Z,18.80
2023-04-09T14:58:37.405Z,19.52
2023-04-09T15:01:01.160Z,18.38
2023-04-09T15:03:25.034Z,21.20
2023-04-09T15:05:49.148Z,18.27
2023-04-09T15:08:12.679Z,18.45
2023-04-09T15:10:38.077Z,18.63
2023-04-09T15:13:03.042Z,18.50
2023-04-09T15:15:27.777Z,19.63
2023-04-09T15:17:51.515Z,18.77
2023-04-09T15:20:15.211Z,18.83
2023-04-09T15:22:38.765Z,19.20
2023-04-09T15:25:02.413Z,19.00
2023-04-09T15:27:26.268Z,18.30
2023-04-09T15:29:51.867Z,18.50
2023-04-09T15:32:15.430Z,18.55
2023-04-09T15:34:39.155Z,16.70
2023-04-09T15:37:02.734Z,17.05
2023-04-09T15:39:28.352Z,15.82
2023-04-09T15:41:52.290Z,17.60
2023-04-09T15:44:15.955Z,17.02
2023-04-09T15:46:40.946Z,16.17
2023-04-09T15:49:05.147Z,15.95
2023-04-09T15:51:28.662Z,15.68
2023-04-09T15:53:52.245Z,15.57
2023-04-09T15:56:16.257Z,14.57
2023-04-09T15:58:39.804Z,14.55
2023-04-09T16:01:08.454Z,14.63
2023-04-09T16:03:37.125Z,14.00
2023-04-09T16:06:03.897Z,14.88
2023-04-09T16:08:27.577Z,15.85
2023-04-09T16:10:51.160Z,14.98
2023-04-09T16:13:14.708Z,15.27
2023-04-09T16:15:38.213Z,14.13
2023-04-09T16:18:01.831Z,14.55
2023-04-09T16:20:26.824Z,14.95
2023-04-09T16:22:50.673Z,14.65
2023-04-09T16:25:14.249Z,14.32
2023-04-09T16:27:37.868Z,14.52
2023-04-09T16:30:01.419Z,15.63
2023-04-09T16:32:25.458Z,16.67
2023-04-09T16:34:49.046Z,15.45
2023-04-09T16:37:14.063Z,16.42
2023-04-09T16:39:38.054Z,15.93
2023-04-09T16:42:01.757Z,16.73
2023-04-09T16:44:25.617Z,17.75
2023-04-09T16:46:49.246Z,17.67
2023-04-09T16:49:12.826Z,17.90
2023-04-09T16:51:36.465Z,18.63
2023-04-09T16:54:01.453Z,25.52
2023-04-09T16:56:25.059Z,17.98
2023-04-09T16:58:48.583Z,17.67
2023-04-09T17:01:12.243Z,26.55
2023-04-09T17:03:35.986Z,17.92
2023-04-09T17:05:59.609Z,18.15
2023-04-09T17:08:24.526Z,33.63
2023-04-09T17:10:49.537Z,21.17
2023-04-09T17:13:13.261Z,19.85
2023-04-09T17:15:37.787Z,20.40
2023-04-09T17:18:01.629Z,17.38
2023-04-09T17:20:26.096Z,18.98
2023-04-09T17:22:49.670Z,22.73
2023-04-09T17:25:13.429Z,30.05
2023-04-09T17:27:38.368Z,24.73
2023-04-09T17:30:02.127Z,22.98
2023-04-09T17:32:26.095Z,20.95
2023-04-09T17:34:50.594Z,19.33
2023-04-09T17:37:14.156Z,21.23
2023-04-09T17:39:37.750Z,20.20
2023-04-09T17:42:03.366Z,20.67
2023-04-09T17:44:28.410Z,18.73
2023-04-09T17:46:52.040Z,19.00
2023-04-09T17:49:15.625Z,19.20
2023-04-09T17:51:39.390Z,19.40
2023-04-09T17:54:02.970Z,19.83
2023-04-09T17:56:27.140Z,18.83
2023-04-09T17:58:50.913Z,18.88
2023-04-09T18:01:16.260Z,18.75
2023-04-09T18:03:40.569Z,18.65
2023-04-09T18:06:04.260Z,18.00
2023-04-09T18:08:27.983Z,17.50
2023-04-09T18:11:04.916Z,17.23
2023-04-09T18:13:34.829Z,18.52
2023-04-09T18:15:58.364Z,18.25
2023-04-09T18:18:23.358Z,17.65
2023-04-09T18:20:49.800Z,17.70
2023-04-09T18:23:13.521Z,16.45
2023-04-09T18:25:37.597Z,16.90
2023-04-09T18:28:01.171Z,17.17
2023-04-09T18:30:26.250Z,16.55
2023-04-09T18:32:49.886Z,17.58
2023-04-09T18:35:15.115Z,16.88
2023-04-09T18:37:38.773Z,16.67
2023-04-09T18:40:02.762Z,17.08
2023-04-09T18:42:26.719Z,15.90
2023-04-09T18:44:50.408Z,17.00
2023-04-09T18:47:13.986Z,16.52
2023-04-09T18:49:37.958Z,16.13
2023-04-09T18:52:05.462Z,16.67
2023-04-09T18:54:29.100Z,17.70
2023-04-09T18:56:52.739Z,16.52
2023-04-09T18:59:16.524Z,18.23
2023-04-09T19:01:40.472Z,16.50
2023-04-09T19:04:04.187Z,17.80
2023-04-09T19:06:27.999Z,17.70
2023-04-09T19:08:58.022Z,16.65
2023-04-09T19:11:21.776Z,18.05
2023-04-09T19:13:45.414Z,17.92
2023-04-09T19:16:09.757Z,17.33
2023-04-09T19:18:34.324Z,17.65
2023-04-09T19:20:57.956Z,17.15
2023-04-09T19:23:21.487Z,16.67
2023-04-09T19:25:46.493Z,17.77
2023-04-09T19:28:10.112Z,17.83
2023-04-09T19:30:33.778Z,17.90
2023-04-09T19:32:57.378Z,18.95
2023-04-09T19:35:21.133Z,19.08
2023-04-09T19:37:44.900Z,20.33
2023-04-09T19:40:10.450Z,21.02
2023-04-09T19:42:35.365Z,21.00
2023-04-09T19:44:58.945Z,20.92
2023-04-09T19:47:22.578Z,21.50
2023-04-09T19:49:46.154Z,20.58
2023-04-09T19:52:09.838Z,21.48
2023-04-09T19:54:33.443Z,21.50
2023-04-09T19:56:57.703Z,21.40
2023-04-09T19:59:22.686Z,21.42
2023-04-09T20:01:48.024Z,22.50
2023-04-09T20:04:12.142Z,22.23
2023-04-09T20:06:35.703Z,22.85
2023-04-09T20:08:59.442Z,21.92
2023-04-09T20:11:22.960Z,23.08
2023-04-09T20:13:47.920Z,23.73
2023-04-09T20:16:12.883Z,24.38
2023-04-09T20:18:36.446Z,26.38
2023-04-09T20:20:59.965Z,25.13
2023-04-09T20:23:23.555Z,25.40
2023-04-09T20:25:47.146Z,27.02
2023-04-09T20:28:10.965Z,26.05
2023-04-09T20:30:34.568Z,26.10
2023-04-09T20:32:59.819Z,27.58
2023-04-09T20:35:23.417Z,30.85
2023-04-09T20:37:48.433Z,28.88
2023-04-09T20:40:13.783Z,27.20
2023-04-09T20:42:37.347Z,27.80
2023-04-09T20:45:01.823Z,28.33
2023-04-09T20:47:25.970Z,33.17
2023-04-09T20:49:51.214Z,33.30
2023-04-09T20:52:15.341Z,31.08
2023-04-09T20:54:39.304Z,30.10
2023-04-09T20:57:03.870Z,29.53
2023-04-09T20:59:27.629Z,31.42
2023-04-09T21:01:51.491Z,31.70
2023-04-09T21:04:15.827Z,32.23
2023-04-09T21:06:41.288Z,30.03
2023-04-09T21:09:04.903Z,30.55
2023-04-09T21:11:28.614Z,30.63
2023-04-09T21:13:55.092Z,33.97
2023-04-09T21:16:19.353Z,36.83
2023-04-09T21:18:42.879Z,35.30
2023-04-09T21:21:08.676Z,30.87
2023-04-09T21:23:33.619Z,33.47
2023-04-09T21:25:57.576Z,35.70
2023-04-09T21:28:21.109Z,36.57
2023-04-09T21:30:44.772Z,35.00
2023-04-09T21:33:10.012Z,31.37
2023-04-09T21:35:33.842Z,34.07
2023-04-09T21:37:57.594Z,33.27
2023-04-09T21:40:23.365Z,35.50
2023-04-09T21:42:47.124Z,33.10
2023-04-09T21:45:11.842Z,35.20
2023-04-09T21:47:35.520Z,39.07
2023-04-09T21:49:59.431Z,37.00
2023-04-09T21:52:23.258Z,39.10
2023-04-09T21:54:46.921Z,38.73
2023-04-09T21:57:12.389Z,41.90
2023-04-09T21:59:37.142Z,44.10
2023-04-09T22:02:00.768Z,42.13
2023-04-09T22:04:24.505Z,38.40
2023-04-09T22:06:48.073Z,38.17
2023-04-09T22:09:11.625Z,41.20
2023-04-09T22:11:35.338Z,37.03
2023-04-09T22:14:00.369Z,35.80
2023-04-09T22:16:24.222Z,38.83
2023-04-09T22:18:47.985Z,40.13
2023-04-09T22:21:16.524Z,39.80
2023-04-09T22:23:40.118Z,37.20
2023-04-09T22:26:04.319Z,38.17
2023-04-09T22:28:29.170Z,35.30
2023-04-09T22:30:55.105Z,34.63
2023-04-09T22:33:18.792Z,37.27
2023-04-09T22:35:42.292Z,36.13
2023-04-09T22:38:06.627Z,37.43
2023-04-09T22:40:30.226Z,40.90
2023-04-09T22:42:53.789Z,34.17
2023-04-09T22:45:17.309Z,44.07
2023-04-09T22:47:42.424Z,39.13
2023-04-09T22:50:07.233Z,38.60
2023-04-09T22:52:30.804Z,38.03
2023-04-09T22:54:54.379Z,39.00
2023-04-09T22:57:17.916Z,39.73
2023-04-09T22:59:41.412Z,38.30
2023-04-09T23:02:05.046Z,38.00
2023-04-09T23:04:30.093Z,39.43
2023-04-09T23:06:54.596Z,36.90
2023-04-09T23:09:18.159Z,39.30
2023-04-09T23:11:41.728Z,44.50
2023-04-09T23:14:05.226Z,41.53
2023-04-09T23:16:28.863Z,40.43
2023-04-09T23:18:52.640Z,37.43
2023-04-09T23:21:17.818Z,41.37
2023-04-09T23:23:41.397Z,40.03
2023-04-09T23:26:05.913Z,40.13
2023-04-09T23:28:29.937Z,40.90
2023-04-09T23:30:53.657Z,42.03
2023-04-09T23:33:17.202Z,37.63
2023-04-09T23:35:41.692Z,43.67
2023-04-09T23:38:06.830Z,42.90
2023-04-09T23:40:30.440Z,39.80
2023-04-09T23:42:54.137Z,39.50
2023-04-09T23:45:17.815Z,42.77
2023-04-09T23:47:42.375Z,37.63
2023-04-09T23:50:08.435Z,41.23
2023-04-09T23:52:32.570Z,38.60
2023-04-09T23:54:57.587Z,41.17
2023-04-09T23:57:21.884Z,40.97
2023-04-09T23:59:45.519Z,42.73
